sensor_id;sensor_type;location;lat;lon;timestamp;P1;durP1;ratioP1;P2;durP2;ratioP2
37280;SDS011;23169;41.804;12.596;2023-05-10T00:00:33;9.18;;;4.82;;
37280;SDS011;23169;41.804;12.596;2023-05-10T00:03:01;16.15;;;5.40;;
37280;SDS011;23169;41.804;12.596;2023-05-10T00:05:33;11.75;;;5.28;;
37280;SDS011;23169;41.804;12.596;2023-05-10T00:08:01;10.00;;;5.35;;
37280;SDS011;23169;41.804;12.596;2023-05-10T00:10:30;10.20;;;4.93;;
37280;SDS011;23169;41.804;12.596;2023-05-10T00:12:59;8.98;;;5.25;;
37280;SDS011;23169;41.804;12.596;2023-05-10T00:15:29;8.27;;;5.18;;
37280;SDS011;23169;41.804;12.596;2023-05-10T00:18:01;9.70;;;5.28;;
37280;SDS011;23169;41.804;12.596;2023-05-10T00:20:31;11.60;;;5.40;;
37280;SDS011;23169;41.804;12.596;2023-05-10T00:23:00;9.43;;;5.32;;
37280;SDS011;23169;41.804;12.596;2023-05-10T00:25:29;12.13;;;4.95;;
37280;SDS011;23169;41.804;12.596;2023-05-10T00:27:58;13.07;;;5.70;;
37280;SDS011;23169;41.804;12.596;2023-05-10T00:30:30;11.70;;;4.82;;
37280;SDS011;23169;41.804;12.596;2023-05-10T00:32:59;9.18;;;5.28;;
37280;SDS011;23169;41.804;12.596;2023-05-10T00:35:29;9.88;;;5.47;;
37280;SDS011;23169;41.804;12.596;2023-05-10T00:37:58;7.38;;;5.03;;
37280;SDS011;23169;41.804;12.596;2023-05-10T00:40:28;8.65;;;5.07;;
37280;SDS011;23169;41.804;12.596;2023-05-10T00:42:59;11.95;;;4.78;;
37280;SDS011;23169;41.804;12.596;2023-05-10T00:45:32;15.95;;;6.97;;
37280;SDS011;23169;41.804;12.596;2023-05-10T00:48:02;7.78;;;4.95;;
37280;SDS011;23169;41.804;12.596;2023-05-10T00:50:34;11.00;;;6.05;;
37280;SDS011;23169;41.804;12.596;2023-05-10T00:53:03;10.05;;;5.70;;
37280;SDS011;23169;41.804;12.596;2023-05-10T00:55:34;9.48;;;5.25;;
37280;SDS011;23169;41.804;12.596;2023-05-10T00:58:04;12.27;;;6.20;;
37280;SDS011;23169;41.804;12.596;2023-05-10T01:00:34;12.70;;;5.93;;
37280;SDS011;23169;41.804;12.596;2023-05-10T01:03:06;11.10;;;5.50;;
37280;SDS011;23169;41.804;12.596;2023-05-10T01:05:35;10.68;;;5.47;;
37280;SDS011;23169;41.804;12.596;2023-05-10T01:08:04;10.05;;;5.03;;
37280;SDS011;23169;41.804;12.596;2023-05-10T01:10:33;13.50;;;5.53;;
37280;SDS011;23169;41.804;12.596;2023-05-10T01:13:02;7.18;;;4.80;;
37280;SDS011;23169;41.804;12.596;2023-05-10T01:15:33;9.07;;;5.05;;
37280;SDS011;23169;41.804;12.596;2023-05-10T01:18:02;9.32;;;4.97;;
37280;SDS011;23169;41.804;12.596;2023-05-10T01:20:35;8.82;;;5.05;;
37280;SDS011;23169;41.804;12.596;2023-05-10T01:31:21;6.15;;;4.50;;
37280;SDS011;23169;41.804;12.596;2023-05-10T01:34:21;8.18;;;4.60;;
37280;SDS011;23169;41.804;12.596;2023-05-10T01:36:58;8.60;;;4.60;;
37280;SDS011;23169;41.804;12.596;2023-05-10T01:42:29;9.70;;;4.57;;
37280;SDS011;23169;41.804;12.596;2023-05-10T01:45:20;8.82;;;5.00;;
37280;SDS011;23169;41.804;12.596;2023-05-10T01:47:50;9.77;;;4.63;;
37280;SDS011;23169;41.804;12.596;2023-05-10T01:50:29;8.48;;;4.75;;
37280;SDS011;23169;41.804;12.596;2023-05-10T01:52:59;7.28;;;4.38;;
37280;SDS011;23169;41.804;12.596;2023-05-10T01:55:30;7.15;;;4.72;;
37280;SDS011;23169;41.804;12.596;2023-05-10T01:58:05;7.25;;;4.95;;
37280;SDS011;23169;41.804;12.596;2023-05-10T02:00:36;7.43;;;4.78;;
37280;SDS011;23169;41.804;12.596;2023-05-10T02:03:11;10.55;;;4.88;;
37280;SDS011;23169;41.804;12.596;2023-05-10T02:05:42;7.65;;;4.45;;
37280;SDS011;23169;41.804;12.596;2023-05-10T02:08:13;9.32;;;4.40;;
37280;SDS011;23169;41.804;12.596;2023-05-10T02:10:44;10.38;;;4.68;;
37280;SDS011;23169;41.804;12.596;2023-05-10T02:13:14;5.03;;;3.88;;
37280;SDS011;23169;41.804;12.596;2023-05-10T02:15:46;7.90;;;4.30;;
37280;SDS011;23169;41.804;12.596;2023-05-10T02:18:16;5.80;;;4.35;;
37280;SDS011;23169;41.804;12.596;2023-05-10T02:20:46;6.85;;;4.25;;
37280;SDS011;23169;41.804;12.596;2023-05-10T02:23:16;9.85;;;4.32;;
37280;SDS011;23169;41.804;12.596;2023-05-10T02:25:46;6.20;;;4.13;;
37280;SDS011;23169;41.804;12.596;2023-05-10T02:28:16;9.65;;;4.95;;
37280;SDS011;23169;41.804;12.596;2023-05-10T02:30:45;6.03;;;3.95;;
37280;SDS011;23169;41.804;12.596;2023-05-10T02:33:15;9.15;;;3.88;;
37280;SDS011;23169;41.804;12.596;2023-05-10T02:35:45;6.15;;;4.20;;
37280;SDS011;23169;41.804;12.596;2023-05-10T02:38:15;8.52;;;4.22;;
37280;SDS011;23169;41.804;12.596;2023-05-10T02:40:45;7.78;;;4.10;;
37280;SDS011;23169;41.804;12.596;2023-05-10T02:43:17;6.82;;;4.20;;
37280;SDS011;23169;41.804;12.596;2023-05-10T02:45:47;6.43;;;4.00;;
37280;SDS011;23169;41.804;12.596;2023-05-10T02:48:16;5.13;;;3.85;;
37280;SDS011;23169;41.804;12.596;2023-05-10T02:50:45;6.10;;;3.97;;
37280;SDS011;23169;41.804;12.596;2023-05-10T02:53:20;6.43;;;4.10;;
37280;SDS011;23169;41.804;12.596;2023-05-10T02:55:53;8.07;;;4.13;;
37280;SDS011;23169;41.804;12.596;2023-05-10T02:58:25;7.70;;;4.07;;
37280;SDS011;23169;41.804;12.596;2023-05-10T03:00:54;8.93;;;4.10;;
37280;SDS011;23169;41.804;12.596;2023-05-10T03:03:25;5.80;;;4.03;;
37280;SDS011;23169;41.804;12.596;2023-05-10T03:05:53;7.40;;;4.40;;
37280;SDS011;23169;41.804;12.596;2023-05-10T03:08:23;8.75;;;4.78;;
37280;SDS011;23169;41.804;12.596;2023-05-10T03:10:59;7.57;;;5.00;;
37280;SDS011;23169;41.804;12.596;2023-05-10T03:13:44;9.48;;;4.63;;
37280;SDS011;23169;41.804;12.596;2023-05-10T03:16:39;11.77;;;4.82;;
37280;SDS011;23169;41.804;12.596;2023-05-10T03:19:32;8.30;;;4.90;;
37280;SDS011;23169;41.804;12.596;2023-05-10T03:22:10;12.75;;;5.22;;
37280;SDS011;23169;41.804;12.596;2023-05-10T03:24:42;9.27;;;4.72;;
37280;SDS011;23169;41.804;12.596;2023-05-10T03:27:12;9.50;;;5.13;;
37280;SDS011;23169;41.804;12.596;2023-05-10T03:29:43;10.10;;;5.28;;
37280;SDS011;23169;41.804;12.596;2023-05-10T03:32:14;10.15;;;5.38;;
37280;SDS011;23169;41.804;12.596;2023-05-10T03:34:42;10.88;;;5.15;;
37280;SDS011;23169;41.804;12.596;2023-05-10T03:37:11;8.48;;;4.82;;
37280;SDS011;23169;41.804;12.596;2023-05-10T03:39:41;10.02;;;5.43;;
37280;SDS011;23169;41.804;12.596;2023-05-10T03:42:09;10.85;;;5.95;;
37280;SDS011;23169;41.804;12.596;2023-05-10T03:44:40;7.53;;;4.90;;
37280;SDS011;23169;41.804;12.596;2023-05-10T03:47:09;8.32;;;5.30;;
37280;SDS011;23169;41.804;12.596;2023-05-10T03:49:37;9.90;;;4.82;;
37280;SDS011;23169;41.804;12.596;2023-05-10T03:52:06;9.55;;;4.82;;
37280;SDS011;23169;41.804;12.596;2023-05-10T03:54:38;10.32;;;5.45;;
37280;SDS011;23169;41.804;12.596;2023-05-10T03:57:07;10.10;;;5.30;;
37280;SDS011;23169;41.804;12.596;2023-05-10T03:59:37;11.98;;;7.05;;
37280;SDS011;23169;41.804;12.596;2023-05-10T04:02:06;10.75;;;5.95;;
37280;SDS011;23169;41.804;12.596;2023-05-10T04:04:35;11.27;;;5.93;;
37280;SDS011;23169;41.804;12.596;2023-05-10T04:07:03;12.25;;;6.22;;
37280;SDS011;23169;41.804;12.596;2023-05-10T04:09:32;10.30;;;5.88;;
37280;SDS011;23169;41.804;12.596;2023-05-10T04:12:00;10.02;;;6.45;;
37280;SDS011;23169;41.804;12.596;2023-05-10T04:14:30;14.13;;;7.00;;
37280;SDS011;23169;41.804;12.596;2023-05-10T04:17:00;14.93;;;7.05;;
37280;SDS011;23169;41.804;12.596;2023-05-10T04:19:30;15.38;;;7.28;;
37280;SDS011;23169;41.804;12.596;2023-05-10T04:22:01;17.80;;;8.40;;
37280;SDS011;23169;41.804;12.596;2023-05-10T04:24:31;18.88;;;9.07;;
37280;SDS011;23169;41.804;12.596;2023-05-10T04:26:59;20.27;;;8.40;;
37280;SDS011;23169;41.804;12.596;2023-05-10T04:29:29;19.90;;;9.45;;
37280;SDS011;23169;41.804;12.596;2023-05-10T04:31:57;19.77;;;10.15;;
37280;SDS011;23169;41.804;12.596;2023-05-10T04:34:26;20.38;;;9.18;;
37280;SDS011;23169;41.804;12.596;2023-05-10T04:36:55;22.25;;;9.63;;
37280;SDS011;23169;41.804;12.596;2023-05-10T04:39:23;22.08;;;9.48;;
37280;SDS011;23169;41.804;12.596;2023-05-10T04:41:52;19.48;;;9.43;;
37280;SDS011;23169;41.804;12.596;2023-05-10T04:44:21;17.63;;;8.35;;
37280;SDS011;23169;41.804;12.596;2023-05-10T04:46:49;17.88;;;8.40;;
37280;SDS011;23169;41.804;12.596;2023-05-10T04:49:18;16.73;;;8.05;;
37280;SDS011;23169;41.804;12.596;2023-05-10T04:51:47;17.55;;;8.50;;
37280;SDS011;23169;41.804;12.596;2023-05-10T04:54:16;16.30;;;7.53;;
37280;SDS011;23169;41.804;12.596;2023-05-10T04:56:45;14.32;;;7.70;;
37280;SDS011;23169;41.804;12.596;2023-05-10T04:59:13;15.80;;;8.43;;
37280;SDS011;23169;41.804;12.596;2023-05-10T05:01:42;14.50;;;7.10;;
37280;SDS011;23169;41.804;12.596;2023-05-10T05:04:11;13.82;;;7.18;;
37280;SDS011;23169;41.804;12.596;2023-05-10T05:06:39;15.43;;;7.35;;
37280;SDS011;23169;41.804;12.596;2023-05-10T05:09:08;17.30;;;7.88;;
37280;SDS011;23169;41.804;12.596;2023-05-10T05:11:38;19.20;;;8.30;;
37280;SDS011;23169;41.804;12.596;2023-05-10T05:14:08;19.65;;;8.52;;
37280;SDS011;23169;41.804;12.596;2023-05-10T05:16:37;19.33;;;8.15;;
37280;SDS011;23169;41.804;12.596;2023-05-10T05:19:06;16.48;;;7.50;;
37280;SDS011;23169;41.804;12.596;2023-05-10T05:21:35;21.02;;;9.35;;
37280;SDS011;23169;41.804;12.596;2023-05-10T05:24:03;18.98;;;8.85;;
37280;SDS011;23169;41.804;12.596;2023-05-10T05:26:32;22.35;;;9.27;;
37280;SDS011;23169;41.804;12.596;2023-05-10T05:29:01;21.83;;;9.15;;
37280;SDS011;23169;41.804;12.596;2023-05-10T05:31:30;23.55;;;10.13;;
37280;SDS011;23169;41.804;12.596;2023-05-10T05:33:58;26.80;;;10.88;;
37280;SDS011;23169;41.804;12.596;2023-05-10T05:36:28;23.90;;;10.57;;
37280;SDS011;23169;41.804;12.596;2023-05-10T05:38:59;22.75;;;10.50;;
37280;SDS011;23169;41.804;12.596;2023-05-10T05:41:27;24.40;;;10.05;;
37280;SDS011;23169;41.804;12.596;2023-05-10T05:43:56;24.35;;;8.98;;
37280;SDS011;23169;41.804;12.596;2023-05-10T05:46:26;18.58;;;8.52;;
37280;SDS011;23169;41.804;12.596;2023-05-10T05:48:55;17.02;;;8.52;;
37280;SDS011;23169;41.804;12.596;2023-05-10T05:51:23;17.95;;;8.27;;
37280;SDS011;23169;41.804;12.596;2023-05-10T05:53:52;15.95;;;7.18;;
37280;SDS011;23169;41.804;12.596;2023-05-10T05:56:21;14.00;;;6.97;;
37280;SDS011;23169;41.804;12.596;2023-05-10T05:58:52;19.20;;;7.05;;
37280;SDS011;23169;41.804;12.596;2023-05-10T06:01:21;16.45;;;7.10;;
37280;SDS011;23169;41.804;12.596;2023-05-10T06:03:49;16.10;;;7.53;;
37280;SDS011;23169;41.804;12.596;2023-05-10T06:06:17;18.02;;;7.78;;
37280;SDS011;23169;41.804;12.596;2023-05-10T06:08:46;20.50;;;9.00;;
37280;SDS011;23169;41.804;12.596;2023-05-10T06:11:15;16.42;;;8.32;;
37280;SDS011;23169;41.804;12.596;2023-05-10T06:13:46;25.83;;;10.00;;
37280;SDS011;23169;41.804;12.596;2023-05-10T06:16:15;22.58;;;9.65;;
37280;SDS011;23169;41.804;12.596;2023-05-10T06:18:47;23.20;;;10.70;;
37280;SDS011;23169;41.804;12.596;2023-05-10T06:21:15;26.13;;;12.05;;
37280;SDS011;23169;41.804;12.596;2023-05-10T06:23:44;20.85;;;9.68;;
37280;SDS011;23169;41.804;12.596;2023-05-10T06:26:14;24.33;;;10.45;;
37280;SDS011;23169;41.804;12.596;2023-05-10T06:28:43;21.63;;;10.30;;
37280;SDS011;23169;41.804;12.596;2023-05-10T06:31:12;26.30;;;12.25;;
37280;SDS011;23169;41.804;12.596;2023-05-10T06:33:41;25.40;;;10.65;;
37280;SDS011;23169;41.804;12.596;2023-05-10T06:36:10;26.25;;;9.63;;
37280;SDS011;23169;41.804;12.596;2023-05-10T06:38:39;24.27;;;8.93;;
37280;SDS011;23169;41.804;12.596;2023-05-10T06:41:07;23.58;;;8.02;;
37280;SDS011;23169;41.804;12.596;2023-05-10T06:43:37;16.95;;;7.63;;
37280;SDS011;23169;41.804;12.596;2023-05-10T06:46:09;19.98;;;7.72;;
37280;SDS011;23169;41.804;12.596;2023-05-10T06:48:38;18.17;;;8.10;;
37280;SDS011;23169;41.804;12.596;2023-05-10T06:51:07;16.25;;;6.95;;
37280;SDS011;23169;41.804;12.596;2023-05-10T06:53:36;18.83;;;7.43;;
37280;SDS011;23169;41.804;12.596;2023-05-10T06:56:04;12.98;;;7.03;;
37280;SDS011;23169;41.804;12.596;2023-05-10T06:58:33;15.52;;;7.65;;
37280;SDS011;23169;41.804;12.596;2023-05-10T07:01:02;14.13;;;7.05;;
37280;SDS011;23169;41.804;12.596;2023-05-10T07:03:33;12.95;;;6.78;;
37280;SDS011;23169;41.804;12.596;2023-05-10T07:06:02;13.13;;;7.00;;
37280;SDS011;23169;41.804;12.596;2023-05-10T07:08:33;12.13;;;6.72;;
37280;SDS011;23169;41.804;12.596;2023-05-10T07:11:03;12.98;;;6.65;;
37280;SDS011;23169;41.804;12.596;2023-05-10T07:13:35;15.48;;;7.38;;
37280;SDS011;23169;41.804;12.596;2023-05-10T07:16:04;17.50;;;8.50;;
37280;SDS011;23169;41.804;12.596;2023-05-10T07:18:35;15.82;;;7.85;;
37280;SDS011;23169;41.804;12.596;2023-05-10T07:21:04;18.58;;;8.15;;
37280;SDS011;23169;41.804;12.596;2023-05-10T07:23:33;15.43;;;7.28;;
37280;SDS011;23169;41.804;12.596;2023-05-10T07:26:01;14.32;;;7.38;;
37280;SDS011;23169;41.804;12.596;2023-05-10T07:28:31;16.33;;;7.60;;
37280;SDS011;23169;41.804;12.596;2023-05-10T07:31:00;18.05;;;8.00;;
37280;SDS011;23169;41.804;12.596;2023-05-10T07:33:30;16.05;;;7.75;;
37280;SDS011;23169;41.804;12.596;2023-05-10T07:36:01;17.50;;;7.82;;
37280;SDS011;23169;41.804;12.596;2023-05-10T07:38:30;16.48;;;8.02;;
37280;SDS011;23169;41.804;12.596;2023-05-10T07:40:59;15.25;;;7.20;;
37280;SDS011;23169;41.804;12.596;2023-05-10T07:43:31;15.43;;;7.68;;
37280;SDS011;23169;41.804;12.596;2023-05-10T07:45:59;12.35;;;6.30;;
37280;SDS011;23169;41.804;12.596;2023-05-10T07:48:34;11.43;;;6.80;;
37280;SDS011;23169;41.804;12.596;2023-05-10T07:51:02;13.23;;;6.85;;
37280;SDS011;23169;41.804;12.596;2023-05-10T07:53:33;13.75;;;6.15;;
37280;SDS011;23169;41.804;12.596;2023-05-10T07:59:00;10.73;;;6.55;;
37280;SDS011;23169;41.804;12.596;2023-05-10T08:01:31;10.55;;;6.35;;
37280;SDS011;23169;41.804;12.596;2023-05-10T08:04:02;11.25;;;6.85;;
37280;SDS011;23169;41.804;12.596;2023-05-10T08:06:31;9.60;;;5.85;;
37280;SDS011;23169;41.804;12.596;2023-05-10T08:09:00;13.30;;;6.43;;
37280;SDS011;23169;41.804;12.596;2023-05-10T08:11:30;13.75;;;6.18;;
37280;SDS011;23169;41.804;12.596;2023-05-10T08:13:58;10.00;;;6.00;;
37280;SDS011;23169;41.804;12.596;2023-05-10T08:16:27;15.60;;;6.55;;
37280;SDS011;23169;41.804;12.596;2023-05-10T08:18:58;10.55;;;5.72;;
37280;SDS011;23169;41.804;12.596;2023-05-10T08:21:26;15.98;;;6.05;;
37280;SDS011;23169;41.804;12.596;2023-05-10T08:23:55;10.85;;;5.88;;
37280;SDS011;23169;41.804;12.596;2023-05-10T08:26:23;13.73;;;5.90;;
37280;SDS011;23169;41.804;12.596;2023-05-10T08:28:52;8.27;;;5.20;;
37280;SDS011;23169;41.804;12.596;2023-05-10T08:31:22;10.32;;;5.25;;
37280;SDS011;23169;41.804;12.596;2023-05-10T08:33:50;8.35;;;5.38;;
37280;SDS011;23169;41.804;12.596;2023-05-10T08:36:20;11.52;;;4.72;;
37280;SDS011;23169;41.804;12.596;2023-05-10T08:38:51;9.45;;;4.38;;
37280;SDS011;23169;41.804;12.596;2023-05-10T08:41:20;7.47;;;4.38;;
37280;SDS011;23169;41.804;12.596;2023-05-10T08:43:51;8.23;;;4.78;;
37280;SDS011;23169;41.804;12.596;2023-05-10T08:46:21;6.65;;;4.38;;
37280;SDS011;23169;41.804;12.596;2023-05-10T08:48:51;8.05;;;4.47;;
37280;SDS011;23169;41.804;12.596;2023-05-10T08:51:24;10.25;;;4.63;;
37280;SDS011;23169;41.804;12.596;2023-05-10T08:53:58;8.82;;;4.45;;
37280;SDS011;23169;41.804;12.596;2023-05-10T08:56:29;7.05;;;3.85;;
37280;SDS011;23169;41.804;12.596;2023-05-10T08:58:57;6.43;;;3.95;;
37280;SDS011;23169;41.804;12.596;2023-05-10T09:01:26;3.15;;;2.75;;
37280;SDS011;23169;41.804;12.596;2023-05-10T09:03:55;6.45;;;2.60;;
37280;SDS011;23169;41.804;12.596;2023-05-10T09:06:24;3.03;;;2.40;;
37280;SDS011;23169;41.804;12.596;2023-05-10T09:08:52;6.32;;;2.83;;
37280;SDS011;23169;41.804;12.596;2023-05-10T09:11:22;4.38;;;2.47;;
37280;SDS011;23169;41.804;12.596;2023-05-10T09:13:52;4.47;;;3.00;;
37280;SDS011;23169;41.804;12.596;2023-05-10T09:16:20;12.45;;;3.78;;
37280;SDS011;23169;41.804;12.596;2023-05-10T09:18:49;5.80;;;2.63;;
37280;SDS011;23169;41.804;12.596;2023-05-10T09:21:19;4.18;;;2.85;;
37280;SDS011;23169;41.804;12.596;2023-05-10T09:23:48;4.40;;;3.28;;
37280;SDS011;23169;41.804;12.596;2023-05-10T09:26:21;4.75;;;3.08;;
37280;SDS011;23169;41.804;12.596;2023-05-10T09:28:54;6.57;;;2.63;;
37280;SDS011;23169;41.804;12.596;2023-05-10T09:31:43;5.53;;;3.17;;
37280;SDS011;23169;41.804;12.596;2023-05-10T09:34:19;10.27;;;4.18;;
37280;SDS011;23169;41.804;12.596;2023-05-10T09:36:52;6.05;;;3.15;;
37280;SDS011;23169;41.804;12.596;2023-05-10T09:39:34;5.60;;;2.90;;
37280;SDS011;23169;41.804;12.596;2023-05-10T09:42:07;3.60;;;2.50;;
37280;SDS011;23169;41.804;12.596;2023-05-10T09:44:38;2.78;;;2.40;;
37280;SDS011;23169;41.804;12.596;2023-05-10T09:47:09;3.42;;;2.65;;
37280;SDS011;23169;41.804;12.596;2023-05-10T09:49:39;4.80;;;2.67;;
37280;SDS011;23169;41.804;12.596;2023-05-10T09:52:10;7.32;;;2.83;;
37280;SDS011;23169;41.804;12.596;2023-05-10T09:54:42;5.78;;;2.65;;
37280;SDS011;23169;41.804;12.596;2023-05-10T09:57:20;2.40;;;2.20;;
37280;SDS011;23169;41.804;12.596;2023-05-10T09:59:52;5.63;;;3.22;;
37280;SDS011;23169;41.804;12.596;2023-05-10T10:02:27;7.85;;;3.67;;
37280;SDS011;23169;41.804;12.596;2023-05-10T10:04:56;9.50;;;3.85;;
37280;SDS011;23169;41.804;12.596;2023-05-10T10:07:26;4.75;;;3.45;;
37280;SDS011;23169;41.804;12.596;2023-05-10T10:09:55;7.43;;;3.30;;
37280;SDS011;23169;41.804;12.596;2023-05-10T10:12:23;6.28;;;4.13;;
37280;SDS011;23169;41.804;12.596;2023-05-10T10:14:53;6.15;;;3.63;;
37280;SDS011;23169;41.804;12.596;2023-05-10T10:17:23;7.55;;;4.43;;
37280;SDS011;23169;41.804;12.596;2023-05-10T10:19:55;7.10;;;4.45;;
37280;SDS011;23169;41.804;12.596;2023-05-10T10:22:25;10.45;;;4.47;;
37280;SDS011;23169;41.804;12.596;2023-05-10T10:24:53;8.27;;;4.68;;
37280;SDS011;23169;41.804;12.596;2023-05-10T10:35:38;7.47;;;4.32;;
37280;SDS011;23169;41.804;12.596;2023-05-10T10:38:08;7.18;;;4.40;;
37280;SDS011;23169;41.804;12.596;2023-05-10T10:40:37;8.07;;;3.80;;
37280;SDS011;23169;41.804;12.596;2023-05-10T10:51:38;10.52;;;4.22;;
37280;SDS011;23169;41.804;12.596;2023-05-10T10:54:10;5.80;;;3.70;;
37280;SDS011;23169;41.804;12.596;2023-05-10T10:56:43;8.60;;;4.32;;
37280;SDS011;23169;41.804;12.596;2023-05-10T10:59:12;7.57;;;4.18;;
37280;SDS011;23169;41.804;12.596;2023-05-10T11:01:54;7.25;;;3.95;;
37280;SDS011;23169;41.804;12.596;2023-05-10T11:04:22;7.22;;;4.35;;
37280;SDS011;23169;41.804;12.596;2023-05-10T11:06:52;9.40;;;3.90;;
37280;SDS011;23169;41.804;12.596;2023-05-10T11:09:46;9.07;;;3.85;;
37280;SDS011;23169;41.804;12.596;2023-05-10T11:12:15;6.70;;;3.35;;
37280;SDS011;23169;41.804;12.596;2023-05-10T11:14:49;8.10;;;3.70;;
37280;SDS011;23169;41.804;12.596;2023-05-10T11:17:25;3.38;;;3.08;;
37280;SDS011;23169;41.804;12.596;2023-05-10T11:20:10;5.35;;;2.80;;
37280;SDS011;23169;41.804;12.596;2023-05-10T11:22:52;3.78;;;2.38;;
37280;SDS011;23169;41.804;12.596;2023-05-10T11:25:27;6.18;;;2.22;;
37280;SDS011;23169;41.804;12.596;2023-05-10T11:27:56;3.13;;;1.67;;
37280;SDS011;23169;41.804;12.596;2023-05-10T11:30:26;5.57;;;3.08;;
37280;SDS011;23169;41.804;12.596;2023-05-10T11:32:55;4.22;;;2.40;;
37280;SDS011;23169;41.804;12.596;2023-05-10T11:35:24;2.67;;;1.73;;
37280;SDS011;23169;41.804;12.596;2023-05-10T11:37:55;7.07;;;2.53;;
37280;SDS011;23169;41.804;12.596;2023-05-10T11:40:24;2.97;;;1.70;;
37280;SDS011;23169;41.804;12.596;2023-05-10T11:42:55;6.30;;;1.80;;
37280;SDS011;23169;41.804;12.596;2023-05-10T11:45:24;3.63;;;1.70;;
37280;SDS011;23169;41.804;12.596;2023-05-10T11:47:53;2.20;;;1.80;;
37280;SDS011;23169;41.804;12.596;2023-05-10T11:50:22;1.67;;;1.45;;
37280;SDS011;23169;41.804;12.596;2023-05-10T11:52:51;4.15;;;1.95;;
37280;SDS011;23169;41.804;12.596;2023-05-10T11:55:20;4.18;;;1.73;;
37280;SDS011;23169;41.804;12.596;2023-05-10T11:57:53;3.03;;;1.58;;
37280;SDS011;23169;41.804;12.596;2023-05-10T12:00:22;4.55;;;1.90;;
37280;SDS011;23169;41.804;12.596;2023-05-10T12:02:54;8.18;;;2.10;;
37280;SDS011;23169;41.804;12.596;2023-05-10T12:05:23;5.63;;;1.88;;
37280;SDS011;23169;41.804;12.596;2023-05-10T12:07:53;4.47;;;1.98;;
37280;SDS011;23169;41.804;12.596;2023-05-10T12:10:42;10.02;;;3.55;;
37280;SDS011;23169;41.804;12.596;2023-05-10T12:13:11;4.40;;;2.00;;
37280;SDS011;23169;41.804;12.596;2023-05-10T12:15:42;10.18;;;1.80;;
37280;SDS011;23169;41.804;12.596;2023-05-10T12:18:12;3.95;;;1.88;;
37280;SDS011;23169;41.804;12.596;2023-05-10T12:20:43;7.15;;;2.10;;
37280;SDS011;23169;41.804;12.596;2023-05-10T12:23:13;4.65;;;1.73;;
37280;SDS011;23169;41.804;12.596;2023-05-10T12:25:42;8.02;;;2.05;;
37280;SDS011;23169;41.804;12.596;2023-05-10T12:28:14;3.08;;;1.77;;
37280;SDS011;23169;41.804;12.596;2023-05-10T12:30:42;6.38;;;2.17;;
37280;SDS011;23169;41.804;12.596;2023-05-10T12:33:13;5.80;;;2.70;;
37280;SDS011;23169;41.804;12.596;2023-05-10T12:35:49;4.40;;;2.60;;
37280;SDS011;23169;41.804;12.596;2023-05-10T12:38:31;3.53;;;1.95;;
37280;SDS011;23169;41.804;12.596;2023-05-10T12:41:02;6.80;;;2.25;;
37280;SDS011;23169;41.804;12.596;2023-05-10T12:43:33;8.98;;;2.25;;
37280;SDS011;23169;41.804;12.596;2023-05-10T12:48:35;7.40;;;2.33;;
37280;SDS011;23169;41.804;12.596;2023-05-10T12:51:05;5.05;;;1.95;;
37280;SDS011;23169;41.804;12.596;2023-05-10T12:53:39;3.25;;;1.95;;
37280;SDS011;23169;41.804;12.596;2023-05-10T12:56:08;2.72;;;2.08;;
37280;SDS011;23169;41.804;12.596;2023-05-10T12:58:38;4.90;;;2.20;;
37280;SDS011;23169;41.804;12.596;2023-05-10T13:01:07;2.88;;;2.30;;
37280;SDS011;23169;41.804;12.596;2023-05-10T13:03:36;3.95;;;2.05;;
37280;SDS011;23169;41.804;12.596;2023-05-10T13:06:05;7.47;;;2.00;;
37280;SDS011;23169;41.804;12.596;2023-05-10T13:08:37;4.20;;;2.00;;
37280;SDS011;23169;41.804;12.596;2023-05-10T13:11:06;6.82;;;2.30;;
37280;SDS011;23169;41.804;12.596;2023-05-10T13:13:35;5.80;;;2.20;;
37280;SDS011;23169;41.804;12.596;2023-05-10T13:16:04;6.55;;;2.17;;
37280;SDS011;23169;41.804;12.596;2023-05-10T13:18:34;8.55;;;2.00;;
37280;SDS011;23169;41.804;12.596;2023-05-10T13:21:02;4.60;;;2.05;;
37280;SDS011;23169;41.804;12.596;2023-05-10T13:23:34;7.47;;;2.58;;
37280;SDS011;23169;41.804;12.596;2023-05-10T13:26:02;10.50;;;2.30;;
37280;SDS011;23169;41.804;12.596;2023-05-10T13:28:32;8.73;;;2.88;;
37280;SDS011;23169;41.804;12.596;2023-05-10T13:31:01;3.85;;;1.90;;
37280;SDS011;23169;41.804;12.596;2023-05-10T13:33:30;11.48;;;2.60;;
37280;SDS011;23169;41.804;12.596;2023-05-10T13:35:58;6.70;;;2.10;;
37280;SDS011;23169;41.804;12.596;2023-05-10T13:38:27;5.85;;;2.22;;
37280;SDS011;23169;41.804;12.596;2023-05-10T13:40:56;5.50;;;2.17;;
37280;SDS011;23169;41.804;12.596;2023-05-10T13:43:25;6.35;;;2.17;;
37280;SDS011;23169;41.804;12.596;2023-05-10T13:45:53;7.22;;;2.15;;
37280;SDS011;23169;41.804;12.596;2023-05-10T13:48:22;5.40;;;2.50;;
37280;SDS011;23169;41.804;12.596;2023-05-10T13:50:51;4.07;;;2.13;;
37280;SDS011;23169;41.804;12.596;2023-05-10T13:53:20;9.07;;;2.42;;
37280;SDS011;23169;41.804;12.596;2023-05-10T13:55:49;5.00;;;2.20;;
37280;SDS011;23169;41.804;12.596;2023-05-10T13:58:18;8.55;;;2.50;;
37280;SDS011;23169;41.804;12.596;2023-05-10T14:00:47;6.75;;;2.42;;
37280;SDS011;23169;41.804;12.596;2023-05-10T14:03:16;4.68;;;1.95;;
37280;SDS011;23169;41.804;12.596;2023-05-10T14:05:44;7.47;;;2.72;;
37280;SDS011;23169;41.804;12.596;2023-05-10T14:08:13;8.43;;;2.67;;
37280;SDS011;23169;41.804;12.596;2023-05-10T14:10:42;8.68;;;2.05;;
37280;SDS011;23169;41.804;12.596;2023-05-10T14:13:11;11.48;;;2.85;;
37280;SDS011;23169;41.804;12.596;2023-05-10T14:15:40;8.65;;;2.28;;
37280;SDS011;23169;41.804;12.596;2023-05-10T14:18:09;5.07;;;2.35;;
37280;SDS011;23169;41.804;12.596;2023-05-10T14:20:38;10.77;;;2.00;;
37280;SDS011;23169;41.804;12.596;2023-05-10T14:23:06;9.82;;;2.28;;
37280;SDS011;23169;41.804;12.596;2023-05-10T14:25:35;12.65;;;2.58;;
37280;SDS011;23169;41.804;12.596;2023-05-10T14:28:04;5.88;;;2.17;;
37280;SDS011;23169;41.804;12.596;2023-05-10T14:30:33;8.82;;;2.35;;
37280;SDS011;23169;41.804;12.596;2023-05-10T14:33:02;9.63;;;2.53;;
37280;SDS011;23169;41.804;12.596;2023-05-10T14:35:31;6.75;;;2.30;;
37280;SDS011;23169;41.804;12.596;2023-05-10T14:38:00;5.95;;;2.22;;
37280;SDS011;23169;41.804;12.596;2023-05-10T14:40:30;9.18;;;2.60;;
37280;SDS011;23169;41.804;12.596;2023-05-10T14:42:58;9.77;;;2.88;;
37280;SDS011;23169;41.804;12.596;2023-05-10T14:45:29;4.55;;;2.30;;
37280;SDS011;23169;41.804;12.596;2023-05-10T14:47:57;6.47;;;2.63;;
37280;SDS011;23169;41.804;12.596;2023-05-10T14:50:28;6.68;;;2.40;;
37280;SDS011;23169;41.804;12.596;2023-05-10T14:52:57;6.68;;;2.28;;
37280;SDS011;23169;41.804;12.596;2023-05-10T14:55:30;5.18;;;2.60;;
37280;SDS011;23169;41.804;12.596;2023-05-10T14:57:58;5.80;;;2.90;;
37280;SDS011;23169;41.804;12.596;2023-05-10T15:00:28;7.30;;;3.08;;
37280;SDS011;23169;41.804;12.596;2023-05-10T15:02:58;8.60;;;3.22;;
37280;SDS011;23169;41.804;12.596;2023-05-10T15:05:26;9.10;;;2.40;;
37280;SDS011;23169;41.804;12.596;2023-05-10T15:07:56;3.53;;;2.05;;
37280;SDS011;23169;41.804;12.596;2023-05-10T15:10:25;4.47;;;2.70;;
37280;SDS011;23169;41.804;12.596;2023-05-10T15:12:54;7.38;;;2.80;;
37280;SDS011;23169;41.804;12.596;2023-05-10T15:15:22;5.00;;;2.72;;
37280;SDS011;23169;41.804;12.596;2023-05-10T15:17:51;9.00;;;2.78;;
37280;SDS011;23169;41.804;12.596;2023-05-10T15:20:20;8.02;;;2.83;;